HAM weather

Hamburg Airport
Hamburg, Hamburg, Germany

Public forecast

Using degrees Celsius for public forecast. Weather courtesy of forecast.io.

Current aviation weather report (METAR) for Hamburg Airport

Retrieved 2019/11/15 12:20 UTC (0 seconds ago):

EDDH 151220Z 07011KT 8000 BKN011 06/03 Q1005 TEMPO BKN008

Aviation forecast (TAF) for Hamburg Airport

Retrieved 2019/11/15 12:27 UTC (0 seconds ago):

TAF EDDH 151100Z 1512/1618 08015KT 9999 BKN012 TEMPO 1512/1514 08015G25KT BKN007 BECMG 1514/1517 08010KT TEMPO 1517/1602 3000 BR BKN007 BECMG 1521/1524 07005KT PROB40 TEMPO 1521/1605 0500 -DZ FG OVC001 BECMG 1602/1605 25005KT BKN007 TEMPO 1602/1605 3000 BR TEMPO 1605/1613 3000 RADZ BKN003 BECMG 1613/1616 BKN012 TEMPO 1613/1616 4000 -RADZ BECMG 1616/1618 BKN015